createdAt,value
2023-05-18T00:00:02.535Z,3.63
2023-05-18T00:02:29.434Z,3.97
2023-05-18T00:04:56.982Z,3.58
2023-05-18T00:07:23.781Z,4.10
2023-05-18T00:09:50.599Z,3.97
2023-05-18T00:12:17.434Z,3.70
2023-05-18T00:14:44.208Z,4.05
2023-05-18T00:17:11.054Z,4.03
2023-05-18T00:19:37.801Z,3.83
2023-05-18T00:22:07.904Z,4.32
2023-05-18T00:24:36.949Z,3.87
2023-05-18T00:27:04.045Z,3.88
2023-05-18T00:29:30.885Z,4.57
2023-05-18T00:31:57.787Z,4.20
2023-05-18T00:34:24.624Z,5.90
2023-05-18T00:36:51.441Z,4.10
2023-05-18T00:39:18.224Z,4.10
2023-05-18T00:41:44.978Z,4.00
2023-05-18T00:44:11.899Z,3.35
2023-05-18T00:46:38.750Z,3.33
2023-05-18T00:49:05.843Z,4.03
2023-05-18T00:51:33.730Z,3.75
2023-05-18T00:54:03.650Z,3.92
2023-05-18T00:56:36.773Z,3.95
2023-05-18T00:59:03.861Z,3.80
2023-05-18T01:01:36.661Z,3.63
2023-05-18T01:04:04.858Z,3.63
2023-05-18T01:06:32.962Z,3.85
2023-05-18T01:09:02.760Z,3.80
2023-05-18T01:11:47.690Z,3.40
2023-05-18T01:14:22.608Z,3.50
2023-05-18T01:16:58.101Z,3.88
2023-05-18T01:19:56.876Z,3.70
2023-05-18T01:22:35.779Z,3.47
2023-05-18T01:25:19.488Z,3.92
2023-05-18T01:27:46.854Z,4.10
2023-05-18T01:30:18.274Z,3.97
2023-05-18T01:32:47.243Z,4.03
2023-05-18T01:35:14.129Z,3.45
2023-05-18T01:37:41.193Z,4.55
2023-05-18T01:40:09.453Z,4.37
2023-05-18T01:42:44.145Z,5.25
2023-05-18T01:45:19.478Z,6.15
2023-05-18T01:47:48.788Z,5.60
2023-05-18T01:50:21.742Z,6.28
2023-05-18T01:53:09.634Z,7.13
2023-05-18T01:55:38.700Z,6.30
2023-05-18T01:58:08.247Z,7.03
2023-05-18T02:00:35.711Z,6.80
2023-05-18T02:03:02.694Z,7.22
2023-05-18T02:05:29.618Z,6.67
2023-05-18T02:07:57.269Z,6.82
2023-05-18T02:10:24.113Z,6.18
2023-05-18T02:12:52.913Z,6.30
2023-05-18T02:15:19.930Z,7.43
2023-05-18T02:17:47.539Z,6.20
2023-05-18T02:20:18.416Z,5.60
2023-05-18T02:22:46.130Z,5.95
2023-05-18T02:25:12.901Z,5.32
2023-05-18T02:27:39.708Z,4.90
2023-05-18T02:30:08.893Z,5.10
2023-05-18T02:32:39.303Z,5.60
2023-05-18T02:35:07.349Z,4.10
2023-05-18T02:37:42.367Z,4.30
2023-05-18T02:40:16.094Z,4.43
2023-05-18T02:42:43.151Z,4.40
2023-05-18T02:45:10.208Z,4.15
2023-05-18T02:47:37.004Z,4.22
2023-05-18T02:50:04.024Z,4.40
2023-05-18T02:52:31.048Z,4.57
2023-05-18T02:54:57.837Z,4.43
2023-05-18T02:57:24.611Z,4.60
2023-05-18T02:59:51.574Z,4.97
2023-05-18T03:02:18.409Z,5.00
2023-05-18T03:04:49.337Z,4.40
2023-05-18T03:07:16.303Z,4.60
2023-05-18T03:09:43.007Z,4.72
2023-05-18T03:12:10.091Z,4.22
2023-05-18T03:14:36.861Z,3.92
2023-05-18T03:17:06.065Z,4.53
2023-05-18T03:19:35.052Z,4.60
2023-05-18T03:22:01.879Z,4.72
2023-05-18T03:24:30.474Z,4.72
2023-05-18T03:26:57.452Z,4.13
2023-05-18T03:29:24.146Z,4.53
2023-05-18T03:31:50.974Z,4.40
2023-05-18T03:34:18.065Z,4.68
2023-05-18T03:36:47.509Z,4.32
2023-05-18T03:39:14.352Z,3.97
2023-05-18T03:41:41.466Z,4.30
2023-05-18T03:44:08.328Z,4.83
2023-05-18T03:46:35.124Z,4.70
2023-05-18T03:49:03.456Z,4.78
2023-05-18T03:51:30.331Z,4.25
2023-05-18T03:53:57.438Z,4.20
2023-05-18T03:56:24.370Z,4.27
2023-05-18T03:58:51.549Z,4.53
2023-05-18T04:01:19.017Z,4.00
2023-05-18T04:03:46.056Z,4.43
2023-05-18T04:06:12.860Z,4.20
2023-05-18T04:08:40.502Z,5.00
2023-05-18T04:11:07.373Z,5.10
2023-05-18T04:13:34.121Z,6.15
2023-05-18T04:16:01.041Z,6.07
2023-05-18T04:18:30.354Z,5.47
2023-05-18T04:20:57.240Z,5.17
2023-05-18T04:23:24.132Z,4.82
2023-05-18T04:25:50.945Z,5.05
2023-05-18T04:28:17.760Z,4.85
2023-05-18T04:30:44.502Z,4.32
2023-05-18T04:33:12.916Z,5.07
2023-05-18T04:35:39.761Z,4.80
2023-05-18T04:38:06.457Z,4.45
2023-05-18T04:40:34.160Z,4.80
2023-05-18T04:43:01.302Z,4.47
2023-05-18T04:45:28.205Z,3.70
2023-05-18T04:47:54.970Z,2.65
2023-05-18T04:50:25.441Z,3.10
2023-05-18T04:52:52.754Z,2.88
2023-05-18T04:55:29.217Z,2.70
2023-05-18T04:57:56.975Z,2.30
2023-05-18T05:00:26.141Z,2.38
2023-05-18T05:02:53.582Z,2.25
2023-05-18T05:05:21.449Z,2.72
2023-05-18T05:07:51.408Z,1.75
2023-05-18T05:10:19.158Z,2.17
2023-05-18T05:12:47.409Z,2.30
2023-05-18T05:15:16.297Z,3.28
2023-05-18T05:17:43.176Z,1.90
2023-05-18T05:20:10.222Z,1.85
2023-05-18T05:22:37.065Z,2.23
2023-05-18T05:25:06.063Z,2.05
2023-05-18T05:27:33.239Z,2.60
2023-05-18T05:30:00.169Z,2.20
2023-05-18T05:32:27.114Z,1.90
2023-05-18T05:34:53.977Z,2.93
2023-05-18T05:37:20.841Z,2.65
2023-05-18T05:39:47.802Z,3.20
2023-05-18T05:42:14.833Z,3.15
2023-05-18T05:44:41.707Z,2.70
2023-05-18T05:47:08.976Z,2.77
2023-05-18T05:49:35.816Z,2.78
2023-05-18T05:52:03.022Z,2.58
2023-05-18T05:54:30.552Z,2.30
2023-05-18T05:56:57.397Z,2.65
2023-05-18T05:59:24.272Z,2.83
2023-05-18T06:01:51.687Z,2.17
2023-05-18T06:04:18.712Z,2.75
2023-05-18T06:06:45.692Z,2.67
2023-05-18T06:09:12.493Z,2.85
2023-05-18T06:11:39.369Z,2.73
2023-05-18T06:14:06.164Z,2.35
2023-05-18T06:16:33.036Z,2.13
2023-05-18T06:19:00.399Z,2.78
2023-05-18T06:21:27.839Z,2.83
2023-05-18T06:23:54.687Z,3.37
2023-05-18T06:26:23.064Z,2.50
2023-05-18T06:28:50.300Z,3.05
2023-05-18T06:31:19.097Z,2.95
2023-05-18T06:33:45.951Z,2.90
2023-05-18T06:36:12.791Z,2.63
2023-05-18T06:38:39.658Z,3.67
2023-05-18T06:41:06.441Z,3.17
2023-05-18T06:43:33.275Z,3.50
2023-05-18T06:46:00.105Z,3.20
2023-05-18T06:48:28.334Z,3.40
2023-05-18T06:50:55.750Z,2.55
2023-05-18T06:53:26.466Z,2.70
2023-05-18T06:55:53.296Z,2.65
2023-05-18T06:58:20.699Z,2.58
2023-05-18T07:00:48.573Z,3.53
2023-05-18T07:03:15.402Z,3.55
2023-05-18T07:05:42.289Z,3.40
2023-05-18T07:08:09.863Z,2.80
2023-05-18T07:10:36.687Z,3.50
2023-05-18T07:13:03.445Z,2.97
2023-05-18T07:15:30.480Z,3.13
2023-05-18T07:17:57.599Z,3.03
2023-05-18T07:20:26.392Z,3.50
2023-05-18T07:22:55.348Z,3.83
2023-05-18T07:25:23.269Z,3.20
2023-05-18T07:27:52.226Z,3.05
2023-05-18T07:30:19.110Z,4.15
2023-05-18T07:32:46.336Z,3.90
2023-05-18T07:35:13.310Z,3.65
2023-05-18T07:37:40.139Z,3.43
2023-05-18T07:40:09.874Z,3.85
2023-05-18T07:42:36.873Z,4.03
2023-05-18T07:45:03.826Z,3.78
2023-05-18T07:47:30.723Z,3.97
2023-05-18T07:49:57.500Z,3.90
2023-05-18T07:52:24.296Z,4.50
2023-05-18T07:54:51.115Z,4.05
2023-05-18T07:57:17.811Z,3.97
2023-05-18T07:59:46.714Z,4.53
2023-05-18T08:02:13.668Z,4.10
2023-05-18T08:04:40.806Z,3.63
2023-05-18T08:07:07.591Z,3.90
2023-05-18T08:09:34.530Z,3.92
2023-05-18T08:12:01.388Z,4.03
2023-05-18T08:14:28.217Z,3.47
2023-05-18T08:16:55.023Z,3.90
2023-05-18T08:19:21.898Z,3.75
2023-05-18T08:21:48.783Z,3.60
2023-05-18T08:24:15.493Z,4.15
2023-05-18T08:26:42.261Z,4.20
2023-05-18T08:29:11.953Z,4.60
2023-05-18T08:31:39.997Z,4.00
2023-05-18T08:34:08.213Z,4.45
2023-05-18T08:36:36.230Z,4.53
2023-05-18T08:39:03.339Z,5.53
2023-05-18T08:41:36.129Z,5.03
2023-05-18T08:44:21.779Z,4.40
2023-05-18T08:46:51.572Z,4.78
2023-05-18T08:49:20.484Z,5.18
2023-05-18T08:51:54.588Z,5.30
2023-05-18T08:54:22.885Z,4.63
2023-05-18T08:56:50.148Z,4.55
2023-05-18T08:59:23.152Z,4.82
2023-05-18T09:01:51.303Z,4.68
2023-05-18T09:04:19.924Z,5.33
2023-05-18T09:06:48.340Z,4.45
2023-05-18T09:09:16.325Z,4.85
2023-05-18T09:11:43.571Z,4.82
2023-05-18T09:14:10.720Z,4.93
2023-05-18T09:16:37.659Z,5.90
2023-05-18T09:19:05.088Z,6.00
2023-05-18T09:21:32.836Z,5.25
2023-05-18T09:24:00.738Z,5.88
2023-05-18T09:26:27.671Z,6.90
2023-05-18T09:28:54.859Z,6.93
2023-05-18T09:31:24.860Z,8.75
2023-05-18T09:33:54.456Z,7.50
2023-05-18T09:36:26.232Z,7.03
2023-05-18T09:38:53.662Z,7.22
2023-05-18T09:41:20.679Z,6.60
2023-05-18T09:43:51.576Z,7.72
2023-05-18T09:46:20.856Z,6.47
2023-05-18T09:48:51.569Z,6.05
2023-05-18T09:51:19.173Z,5.72
2023-05-18T09:54:05.409Z,6.03
2023-05-18T09:56:38.640Z,5.70
2023-05-18T09:59:10.788Z,4.97
2023-05-18T10:01:38.445Z,5.40
2023-05-18T10:04:05.710Z,5.70
2023-05-18T10:06:32.619Z,7.07
2023-05-18T10:09:02.371Z,7.90
2023-05-18T10:11:32.822Z,7.43
2023-05-18T10:13:59.746Z,6.40
2023-05-18T10:16:26.647Z,5.10
2023-05-18T10:18:55.702Z,5.17
2023-05-18T10:21:27.506Z,5.78
2023-05-18T10:23:54.411Z,5.45
2023-05-18T10:26:25.811Z,4.72
2023-05-18T10:28:55.811Z,5.05
2023-05-18T10:31:24.707Z,6.17
2023-05-18T10:33:52.547Z,5.57
2023-05-18T10:36:19.856Z,5.32
2023-05-18T10:38:47.396Z,4.57
2023-05-18T10:41:15.289Z,5.50
2023-05-18T10:43:42.929Z,4.60
2023-05-18T10:46:10.102Z,4.80
2023-05-18T10:48:40.549Z,5.15
2023-05-18T10:51:08.215Z,6.05
2023-05-18T10:53:36.668Z,6.32
2023-05-18T10:56:03.956Z,8.00
2023-05-18T10:58:35.516Z,9.55
2023-05-18T11:01:06.413Z,9.57
2023-05-18T11:03:33.923Z,9.48
2023-05-18T11:06:10.571Z,9.18
2023-05-18T11:09:06.835Z,7.77
2023-05-18T11:11:59.966Z,6.28
2023-05-18T11:14:32.991Z,6.07
2023-05-18T11:17:20.333Z,6.97
2023-05-18T11:20:08.205Z,7.80
2023-05-18T11:22:45.246Z,6.67
2023-05-18T11:25:34.202Z,8.52
2023-05-18T11:28:10.268Z,7.43
2023-05-18T11:30:37.099Z,8.55
2023-05-18T11:33:11.412Z,6.35
2023-05-18T11:36:12.127Z,6.73
2023-05-18T11:38:46.587Z,6.15
2023-05-18T11:41:33.641Z,7.20
2023-05-18T11:44:12.309Z,6.68
2023-05-18T11:47:06.274Z,6.75
2023-05-18T11:49:44.174Z,7.00
2023-05-18T11:52:16.260Z,7.15
2023-05-18T11:54:47.264Z,8.18
2023-05-18T11:57:15.979Z,9.32
2023-05-18T11:59:47.242Z,8.15
2023-05-18T12:02:20.772Z,9.63
2023-05-18T12:04:51.139Z,10.32
2023-05-18T12:07:19.731Z,9.77
2023-05-18T12:09:47.996Z,10.07
2023-05-18T12:12:20.194Z,8.68
2023-05-18T12:15:03.386Z,9.13
2023-05-18T12:17:42.870Z,9.02
2023-05-18T12:20:12.379Z,8.98
2023-05-18T12:22:40.512Z,10.73
2023-05-18T12:25:08.312Z,9.77
2023-05-18T12:27:46.266Z,9.10
2023-05-18T12:30:16.736Z,8.93
2023-05-18T12:32:51.962Z,8.82
2023-05-18T12:35:29.520Z,9.10
2023-05-18T12:38:00.334Z,9.63
2023-05-18T12:40:28.431Z,8.10
2023-05-18T12:42:59.892Z,8.25
2023-05-18T12:45:28.712Z,9.85
2023-05-18T12:47:56.315Z,9.05
2023-05-18T12:50:25.303Z,7.95
2023-05-18T12:52:52.571Z,8.57
2023-05-18T12:55:22.869Z,9.65
2023-05-18T12:58:03.297Z,9.38
2023-05-18T13:00:37.596Z,8.88
2023-05-18T13:03:09.270Z,9.65
2023-05-18T13:05:37.418Z,9.13
2023-05-18T13:08:04.465Z,10.77
2023-05-18T13:10:34.789Z,10.82
2023-05-18T13:13:03.968Z,10.95
2023-05-18T13:15:38.107Z,11.20
2023-05-18T13:18:10.635Z,12.00
2023-05-18T13:20:56.340Z,12.38
2023-05-18T13:23:26.548Z,9.68
2023-05-18T13:25:54.375Z,9.23
2023-05-18T13:28:26.922Z,11.15
2023-05-18T13:30:53.669Z,12.40
2023-05-18T13:33:25.476Z,11.30
2023-05-18T13:35:52.257Z,10.05
2023-05-18T13:38:19.068Z,11.15
2023-05-18T13:40:47.066Z,11.77
2023-05-18T13:43:18.640Z,12.37
2023-05-18T13:45:45.642Z,12.18
2023-05-18T13:48:12.588Z,12.48
2023-05-18T13:50:39.721Z,12.88
2023-05-18T13:53:08.065Z,12.82
2023-05-18T13:55:35.708Z,12.43
2023-05-18T13:58:02.775Z,12.23
2023-05-18T14:00:30.086Z,12.02
2023-05-18T14:02:57.189Z,13.85
2023-05-18T14:05:24.592Z,11.82
2023-05-18T14:07:54.479Z,11.80
2023-05-18T14:10:21.322Z,12.55
2023-05-18T14:12:48.176Z,12.43
2023-05-18T14:15:15.675Z,13.07
2023-05-18T14:17:43.337Z,13.63
2023-05-18T14:20:11.388Z,13.23
2023-05-18T14:22:38.393Z,13.63
2023-05-18T14:25:05.702Z,13.45
2023-05-18T14:27:32.480Z,14.05
2023-05-18T14:29:59.275Z,11.35
2023-05-18T14:32:28.515Z,12.43
2023-05-18T14:34:58.211Z,12.88
2023-05-18T14:37:25.245Z,12.40
2023-05-18T14:39:52.036Z,12.50
2023-05-18T14:42:18.810Z,12.25
2023-05-18T14:44:46.359Z,11.73
2023-05-18T14:47:17.935Z,13.18
2023-05-18T14:49:44.691Z,13.25
2023-05-18T14:52:11.499Z,12.10
2023-05-18T14:54:40.355Z,10.95
2023-05-18T14:57:07.212Z,11.70
2023-05-18T14:59:34.022Z,11.25
2023-05-18T15:02:00.872Z,10.82
2023-05-18T15:04:27.662Z,12.00
2023-05-18T15:06:54.480Z,11.93
2023-05-18T15:09:21.275Z,11.43
2023-05-18T15:11:48.066Z,11.82
2023-05-18T15:14:14.870Z,10.63
2023-05-18T15:16:42.536Z,11.35
2023-05-18T15:19:12.383Z,11.43
2023-05-18T15:21:39.238Z,11.80
2023-05-18T15:24:07.492Z,10.98
2023-05-18T15:26:34.827Z,12.48
2023-05-18T15:29:01.654Z,11.20
2023-05-18T15:31:29.750Z,11.25
2023-05-18T15:33:59.592Z,13.13
2023-05-18T15:36:26.433Z,15.82
2023-05-18T15:38:53.183Z,14.65
2023-05-18T15:41:19.984Z,14.07
2023-05-18T15:43:46.866Z,16.10
2023-05-18T15:46:13.800Z,12.37
2023-05-18T15:48:40.775Z,13.25
2023-05-18T15:51:07.638Z,13.13
2023-05-18T15:53:34.488Z,13.57
2023-05-18T15:56:01.255Z,12.43
2023-05-18T15:58:28.443Z,11.20
2023-05-18T16:00:55.302Z,12.25
2023-05-18T16:03:22.323Z,11.23
2023-05-18T16:05:49.189Z,12.32
2023-05-18T16:08:15.972Z,13.57
2023-05-18T16:10:42.812Z,12.07
2023-05-18T16:13:09.659Z,13.25
2023-05-18T16:15:38.668Z,12.63
2023-05-18T16:18:05.748Z,12.77
2023-05-18T16:20:35.660Z,11.35
2023-05-18T16:23:02.547Z,12.00
2023-05-18T16:25:32.795Z,11.85
2023-05-18T16:28:01.958Z,11.60
2023-05-18T16:30:28.838Z,11.35
2023-05-18T16:32:55.749Z,10.70
2023-05-18T16:35:23.695Z,11.73
2023-05-18T16:37:50.529Z,11.85
2023-05-18T16:40:17.356Z,12.52
2023-05-18T16:42:47.469Z,12.65
2023-05-18T16:45:14.902Z,12.60
2023-05-18T16:47:44.373Z,12.90
2023-05-18T16:50:13.634Z,11.95
2023-05-18T16:52:40.433Z,13.10
2023-05-18T16:55:07.496Z,13.45
2023-05-18T16:57:34.221Z,12.90
2023-05-18T17:00:01.244Z,13.77
2023-05-18T17:02:30.416Z,15.00
2023-05-18T17:04:59.066Z,15.00
2023-05-18T17:07:26.242Z,13.18
2023-05-18T17:09:53.056Z,14.48
2023-05-18T17:12:19.828Z,13.30
2023-05-18T17:14:46.604Z,12.88
2023-05-18T17:17:13.458Z,12.85
2023-05-18T17:19:40.430Z,13.38
2023-05-18T17:22:09.577Z,11.93
2023-05-18T17:24:37.016Z,13.03
2023-05-18T17:27:04.825Z,11.15
2023-05-18T17:29:31.577Z,11.75
2023-05-18T17:32:01.682Z,11.60
2023-05-18T17:34:31.547Z,11.25
2023-05-18T17:36:58.788Z,12.13
2023-05-18T17:39:26.256Z,15.10
2023-05-18T17:41:54.409Z,16.30
2023-05-18T17:44:21.427Z,17.80
2023-05-18T17:46:48.343Z,15.48
2023-05-18T17:49:15.498Z,12.53
2023-05-18T17:51:42.696Z,11.27
2023-05-18T17:54:09.924Z,12.60
2023-05-18T17:56:39.020Z,13.48
2023-05-18T17:59:06.444Z,17.55
2023-05-18T18:01:34.505Z,17.13
2023-05-18T18:04:01.673Z,12.75
2023-05-18T18:06:28.757Z,12.05
2023-05-18T18:08:57.988Z,11.70
2023-05-18T18:11:26.066Z,10.13
2023-05-18T18:13:52.974Z,10.57
2023-05-18T18:16:20.588Z,11.25
2023-05-18T18:18:47.649Z,10.63
2023-05-18T18:21:14.510Z,10.77
2023-05-18T18:23:41.371Z,10.18
2023-05-18T18:26:08.565Z,10.87
2023-05-18T18:28:35.625Z,9.65
2023-05-18T18:31:03.190Z,10.57
2023-05-18T18:33:30.111Z,11.07
2023-05-18T18:35:57.599Z,11.65
2023-05-18T18:38:26.962Z,12.07
2023-05-18T18:40:59.952Z,11.80
2023-05-18T18:43:27.994Z,11.85
2023-05-18T18:45:55.992Z,12.45
2023-05-18T18:48:23.631Z,11.43
2023-05-18T18:50:50.560Z,11.37
2023-05-18T18:53:17.346Z,10.32
2023-05-18T18:55:44.359Z,10.23
2023-05-18T18:58:14.089Z,10.57
2023-05-18T19:00:41.119Z,11.60
2023-05-18T19:03:09.943Z,10.37
2023-05-18T19:05:37.078Z,11.07
2023-05-18T19:08:03.889Z,10.45
2023-05-18T19:10:36.255Z,10.48
2023-05-18T19:13:05.921Z,10.45
2023-05-18T19:15:34.214Z,10.73
2023-05-18T19:18:01.730Z,10.95
2023-05-18T19:20:28.967Z,11.02
2023-05-18T19:22:55.822Z,10.27
2023-05-18T19:25:24.752Z,11.52
2023-05-18T19:27:53.084Z,11.33
2023-05-18T19:30:23.906Z,11.40
2023-05-18T19:32:52.553Z,11.80
2023-05-18T19:35:20.652Z,12.18
2023-05-18T19:37:47.816Z,10.15
2023-05-18T19:40:14.777Z,10.80
2023-05-18T19:42:41.574Z,11.25
2023-05-18T19:45:08.622Z,10.77
2023-05-18T19:47:36.460Z,10.48
2023-05-18T19:50:04.303Z,10.18
2023-05-18T19:52:31.852Z,10.27
2023-05-18T19:54:58.588Z,10.10
2023-05-18T19:57:26.567Z,8.68
2023-05-18T19:59:53.832Z,10.15
2023-05-18T20:02:20.632Z,10.57
2023-05-18T20:04:48.484Z,10.67
2023-05-18T20:07:17.031Z,10.52
2023-05-18T20:09:43.772Z,9.90
2023-05-18T20:12:10.952Z,9.85
2023-05-18T20:14:41.990Z,10.25
2023-05-18T20:17:09.095Z,9.17
2023-05-18T20:19:37.832Z,10.70
2023-05-18T20:22:05.141Z,10.43
2023-05-18T20:24:32.816Z,9.05
2023-05-18T20:26:59.747Z,10.00
2023-05-18T20:29:28.808Z,9.33
2023-05-18T20:31:55.871Z,9.68
2023-05-18T20:34:25.011Z,9.65
2023-05-18T20:36:51.738Z,10.55
2023-05-18T20:39:23.141Z,10.60
2023-05-18T20:41:50.505Z,10.80
2023-05-18T20:44:23.620Z,10.98
2023-05-18T20:46:53.094Z,12.52
2023-05-18T20:49:24.996Z,12.52
2023-05-18T20:51:51.980Z,12.63
2023-05-18T20:54:19.077Z,13.23
2023-05-18T20:56:45.996Z,13.48
2023-05-18T20:59:16.149Z,12.38
2023-05-18T21:01:43.157Z,12.25
2023-05-18T21:04:12.783Z,12.23
2023-05-18T21:06:41.121Z,11.43
2023-05-18T21:09:08.192Z,10.70
2023-05-18T21:11:35.274Z,11.27
2023-05-18T21:14:02.113Z,11.88
2023-05-18T21:16:28.978Z,11.02
2023-05-18T21:18:55.943Z,11.73
2023-05-18T21:21:23.036Z,12.15
2023-05-18T21:23:49.809Z,10.82
2023-05-18T21:26:16.685Z,10.35
2023-05-18T21:28:46.496Z,10.10
2023-05-18T21:31:13.343Z,9.57
2023-05-18T21:33:40.347Z,9.68
2023-05-18T21:36:09.183Z,10.45
2023-05-18T21:38:36.029Z,9.85
2023-05-18T21:41:03.295Z,10.02
2023-05-18T21:43:30.057Z,9.00
2023-05-18T21:45:57.023Z,9.23
2023-05-18T21:48:24.105Z,8.25
2023-05-18T21:50:50.831Z,8.48
2023-05-18T21:53:18.323Z,9.00
2023-05-18T21:55:45.130Z,7.77
2023-05-18T21:58:13.281Z,8.05
2023-05-18T22:00:40.042Z,7.80
2023-05-18T22:03:07.035Z,7.85
2023-05-18T22:05:33.924Z,7.40
2023-05-18T22:08:03.128Z,8.53
2023-05-18T22:10:32.377Z,8.73
2023-05-18T22:12:59.412Z,7.78
2023-05-18T22:15:27.473Z,7.95
2023-05-18T22:17:54.570Z,7.82
2023-05-18T22:20:21.564Z,7.57
2023-05-18T22:22:48.314Z,7.75
2023-05-18T22:25:16.552Z,7.45
2023-05-18T22:27:43.393Z,7.65
2023-05-18T22:30:13.641Z,7.25
2023-05-18T22:32:40.599Z,7.90
2023-05-18T22:35:10.758Z,7.47
2023-05-18T22:37:40.390Z,8.10
2023-05-18T22:40:08.058Z,8.23
2023-05-18T22:42:34.782Z,7.57
2023-05-18T22:45:04.407Z,8.03
2023-05-18T22:47:31.697Z,8.48
2023-05-18T22:49:58.481Z,7.55
2023-05-18T22:52:25.343Z,7.65
2023-05-18T22:54:52.138Z,7.30
2023-05-18T22:57:21.683Z,8.03
2023-05-18T22:59:48.414Z,8.43
2023-05-18T23:02:18.109Z,8.25
2023-05-18T23:04:44.943Z,8.30
2023-05-18T23:07:12.692Z,8.90
2023-05-18T23:09:39.924Z,7.80
2023-05-18T23:12:07.609Z,8.48
2023-05-18T23:14:37.889Z,8.63
2023-05-18T23:17:04.899Z,8.80
2023-05-18T23:19:31.750Z,7.82
2023-05-18T23:21:58.502Z,8.57
2023-05-18T23:24:25.207Z,8.20
2023-05-18T23:26:51.948Z,8.35
2023-05-18T23:29:18.811Z,7.28
2023-05-18T23:31:45.721Z,8.70
2023-05-18T23:34:12.855Z,8.10
2023-05-18T23:36:42.909Z,7.43
2023-05-18T23:39:10.667Z,8.55
2023-05-18T23:41:38.136Z,8.73
2023-05-18T23:44:07.595Z,7.47
2023-05-18T23:46:34.797Z,8.13
2023-05-18T23:49:01.982Z,7.55
2023-05-18T23:51:32.045Z,7.97
2023-05-18T23:53:59.092Z,8.02
2023-05-18T23:56:26.281Z,8.82
2023-05-18T23:58:53.308Z,8.33
